createdAt,value
2022-09-14T00:01:34.261Z,65.16
2022-09-14T00:04:11.180Z,64.45
2022-09-14T00:06:44.374Z,63.72
2022-09-14T00:09:21.857Z,63.77
2022-09-14T00:11:55.712Z,63.78
2022-09-14T00:14:28.089Z,63.78
2022-09-14T00:17:02.439Z,63.49
2022-09-14T00:19:34.961Z,63.22
2022-09-14T00:22:07.166Z,64.13
2022-09-14T00:24:39.642Z,65.01
2022-09-14T00:27:40.353Z,65.23
2022-09-14T00:30:15.342Z,65.44
2022-09-14T00:32:51.237Z,65.12
2022-09-14T00:35:22.447Z,64.40
2022-09-14T00:37:53.895Z,63.73
2022-09-14T00:40:24.504Z,63.65
2022-09-14T00:42:54.622Z,64.40
2022-09-14T00:45:25.437Z,64.47
2022-09-14T00:47:58.536Z,64.97
2022-09-14T00:50:29.143Z,65.40
2022-09-14T00:53:00.624Z,65.42
2022-09-14T00:55:30.924Z,65.58
2022-09-14T00:58:02.217Z,64.79
2022-09-14T01:00:33.922Z,64.68
2022-09-14T01:03:07.110Z,64.07
2022-09-14T01:05:49.425Z,63.92
2022-09-14T01:08:35.192Z,63.19
2022-09-14T01:11:18.398Z,61.93
2022-09-14T01:13:59.213Z,62.15
2022-09-14T01:16:37.400Z,62.73
2022-09-14T01:23:11.358Z,63.52
2022-09-14T01:26:05.490Z,63.47
2022-09-14T01:28:44.309Z,63.15
2022-09-14T01:31:19.478Z,62.70
2022-09-14T01:33:56.245Z,63.15
2022-09-14T01:36:30.231Z,63.25
2022-09-14T01:39:02.152Z,64.11
2022-09-14T01:41:34.275Z,64.66
2022-09-14T01:44:13.755Z,65.36
2022-09-14T01:46:48.185Z,65.60
2022-09-14T01:49:22.417Z,66.21
2022-09-14T01:51:57.700Z,66.23
2022-09-14T01:54:31.642Z,65.44
2022-09-14T01:57:07.260Z,65.71
2022-09-14T01:59:44.826Z,65.14
2022-09-14T02:10:19.371Z,65.75
2022-09-14T02:12:49.968Z,66.25
2022-09-14T02:15:23.187Z,65.94
2022-09-14T02:17:53.396Z,64.98
2022-09-14T02:20:28.992Z,64.79
2022-09-14T02:22:59.908Z,64.83
2022-09-14T02:25:30.437Z,65.98
2022-09-14T02:28:00.897Z,66.23
2022-09-14T02:30:42.420Z,67.70
2022-09-14T02:33:18.656Z,69.38
2022-09-14T02:35:52.695Z,69.77
2022-09-14T02:38:29.864Z,69.28
2022-09-14T02:41:05.777Z,69.27
2022-09-14T02:43:46.639Z,70.20
2022-09-14T02:46:24.479Z,69.83
2022-09-14T02:49:00.986Z,69.23
2022-09-14T02:51:36.323Z,68.56
2022-09-14T02:54:16.103Z,69.61
2022-09-14T02:56:46.708Z,70.06
2022-09-14T02:59:18.663Z,70.02
2022-09-14T03:01:51.327Z,69.91
2022-09-14T03:04:22.420Z,69.44
2022-09-14T03:06:52.497Z,69.35
2022-09-14T03:09:22.768Z,70.14
2022-09-14T03:11:52.663Z,70.33
2022-09-14T03:14:22.616Z,71.22
2022-09-14T03:16:55.542Z,71.74
2022-09-14T03:19:25.451Z,72.39
2022-09-14T03:21:55.782Z,72.71
2022-09-14T03:24:25.866Z,73.11
2022-09-14T03:26:56.152Z,73.92
2022-09-14T03:29:26.318Z,74.35
2022-09-14T03:31:58.776Z,73.40
2022-09-14T03:34:29.127Z,73.64
2022-09-14T03:36:59.044Z,73.28
2022-09-14T03:39:28.847Z,72.87
2022-09-14T03:41:58.851Z,72.49
2022-09-14T03:44:28.658Z,72.17
2022-09-14T03:47:01.342Z,71.67
2022-09-14T03:49:31.394Z,72.17
2022-09-14T03:52:01.110Z,71.99
2022-09-14T03:54:30.897Z,72.53
2022-09-14T03:57:01.194Z,73.35
2022-09-14T03:59:31.109Z,72.94
2022-09-14T04:02:05.008Z,72.95
2022-09-14T04:04:35.096Z,72.38
2022-09-14T04:07:04.798Z,72.52
2022-09-14T04:09:34.543Z,72.76
2022-09-14T04:12:04.908Z,72.32
2022-09-14T04:14:34.643Z,72.75
2022-09-14T04:17:07.410Z,73.01
2022-09-14T04:19:38.615Z,74.15
2022-09-14T04:22:08.470Z,74.19
2022-09-14T04:24:38.915Z,74.48
2022-09-14T04:27:08.714Z,74.21
2022-09-14T04:29:38.446Z,73.67
2022-09-14T04:32:11.341Z,73.34
2022-09-14T04:34:41.029Z,71.94
2022-09-14T04:37:11.422Z,71.45
2022-09-14T04:39:42.346Z,69.24
2022-09-14T04:42:12.432Z,70.22
2022-09-14T04:44:42.111Z,68.16
2022-09-14T04:47:14.501Z,67.68
2022-09-14T04:49:44.727Z,68.00
2022-09-14T04:52:14.488Z,67.76
2022-09-14T04:54:44.195Z,67.74
2022-09-14T04:57:14.241Z,67.92
2022-09-14T04:59:44.390Z,68.81
2022-09-14T05:02:16.823Z,69.43
2022-09-14T05:04:46.984Z,69.49
2022-09-14T05:07:17.018Z,68.80
2022-09-14T05:09:46.818Z,67.96
2022-09-14T05:12:16.793Z,67.74
2022-09-14T05:14:46.531Z,67.21
2022-09-14T05:17:18.839Z,66.62
2022-09-14T05:22:52.895Z,65.90
2022-09-14T05:25:22.936Z,65.63
2022-09-14T05:27:53.193Z,65.69
2022-09-14T05:30:22.946Z,67.01
2022-09-14T05:32:58.060Z,68.12
2022-09-14T05:35:28.043Z,69.08
2022-09-14T05:37:58.071Z,70.33
2022-09-14T05:40:28.089Z,71.57
2022-09-14T05:42:57.836Z,71.65
2022-09-14T05:45:27.868Z,71.50
2022-09-14T05:55:22.524Z,69.78
2022-09-14T05:57:52.613Z,69.07
2022-09-14T06:00:22.606Z,68.61
2022-09-14T06:02:56.256Z,67.61
2022-09-14T06:05:26.803Z,67.31
2022-09-14T06:07:57.119Z,67.34
2022-09-14T06:10:29.525Z,66.69
2022-09-14T06:12:59.612Z,67.01
2022-09-14T06:15:32.604Z,66.61
2022-09-14T06:18:03.197Z,66.07
2022-09-14T06:20:35.084Z,66.23
2022-09-14T06:23:05.366Z,66.99
2022-09-14T06:25:37.608Z,66.83
2022-09-14T06:28:11.296Z,66.61
2022-09-14T06:30:45.489Z,66.22
2022-09-14T06:33:15.719Z,65.60
2022-09-14T06:35:46.428Z,66.02
2022-09-14T06:38:28.671Z,65.65
2022-09-14T06:41:19.971Z,65.40
2022-09-14T06:44:35.714Z,65.01
2022-09-14T06:47:33.549Z,64.66
2022-09-14T06:50:21.213Z,65.43
2022-09-14T06:53:06.636Z,65.24
2022-09-14T06:55:57.408Z,65.27
2022-09-14T06:58:42.495Z,66.14
2022-09-14T07:01:22.576Z,65.49
2022-09-14T07:03:55.909Z,65.24
2022-09-14T07:06:32.479Z,65.38
2022-09-14T07:09:09.239Z,64.69
2022-09-14T07:15:16.729Z,65.07
2022-09-14T07:17:51.930Z,64.91
2022-09-14T07:20:22.430Z,64.47
2022-09-14T07:22:53.331Z,64.38
2022-09-14T07:25:23.547Z,64.93
2022-09-14T07:28:02.057Z,64.79
2022-09-14T07:30:38.080Z,64.44
2022-09-14T07:33:08.601Z,63.71
2022-09-14T07:35:39.772Z,63.47
2022-09-14T07:38:14.144Z,63.59
2022-09-14T07:40:44.595Z,63.56
2022-09-14T07:43:19.844Z,63.23
2022-09-14T07:45:55.091Z,63.09
2022-09-14T07:48:26.030Z,63.60
2022-09-14T07:51:02.892Z,63.06
2022-09-14T07:53:33.652Z,63.35
2022-09-14T07:56:04.222Z,62.72
2022-09-14T07:58:34.860Z,62.67
2022-09-14T08:01:11.980Z,63.01
2022-09-14T08:03:43.573Z,62.70
2022-09-14T08:06:15.225Z,62.73
2022-09-14T08:08:48.012Z,61.54
2022-09-14T08:11:19.739Z,61.17
2022-09-14T08:13:53.142Z,60.24
2022-09-14T08:16:26.850Z,60.44
2022-09-14T08:18:58.789Z,60.44
2022-09-14T08:21:30.284Z,60.81
2022-09-14T08:24:05.875Z,60.80
2022-09-14T08:26:40.829Z,59.38
2022-09-14T08:29:11.483Z,58.10
2022-09-14T08:31:45.608Z,56.65
2022-09-14T08:34:24.980Z,58.79
2022-09-14T08:37:37.022Z,57.34
2022-09-14T08:44:30.598Z,57.38
2022-09-14T08:47:06.242Z,57.13
2022-09-14T08:49:47.888Z,56.25
2022-09-14T08:52:27.259Z,54.01
2022-09-14T08:54:58.913Z,54.10
2022-09-14T08:57:38.042Z,53.07
2022-09-14T09:00:13.208Z,52.59
2022-09-14T09:03:11.286Z,52.37
2022-09-14T09:05:47.360Z,51.65
2022-09-14T09:08:25.863Z,52.84
2022-09-14T09:10:57.648Z,51.49
2022-09-14T09:13:35.574Z,50.15
2022-09-14T09:16:10.258Z,50.12
2022-09-14T09:18:48.138Z,49.42
2022-09-14T09:28:49.566Z,49.02
2022-09-14T09:31:22.155Z,48.84
2022-09-14T09:33:58.067Z,47.72
2022-09-14T09:36:28.850Z,47.88
2022-09-14T09:39:04.286Z,47.69
2022-09-14T09:45:50.466Z,48.09
2022-09-14T09:48:22.574Z,47.99
2022-09-14T09:51:06.166Z,46.95
2022-09-14T09:53:38.516Z,45.60
2022-09-14T09:56:08.969Z,43.99
2022-09-14T09:58:41.397Z,44.76
2022-09-14T10:01:24.574Z,45.10
2022-09-14T10:04:18.693Z,44.96
2022-09-14T10:06:53.264Z,44.95
2022-09-14T10:09:59.782Z,44.70
2022-09-14T10:13:04.007Z,43.91
2022-09-14T10:15:36.606Z,44.44
2022-09-14T10:18:17.414Z,43.42
2022-09-14T10:21:08.224Z,43.14
2022-09-14T10:23:42.029Z,42.67
2022-09-14T10:26:31.386Z,42.50
2022-09-14T10:29:30.467Z,43.06
2022-09-14T10:32:06.751Z,43.56
2022-09-14T10:34:36.824Z,43.35
2022-09-14T10:37:33.108Z,43.87
2022-09-14T10:40:17.008Z,43.19
2022-09-14T10:43:06.272Z,43.10
2022-09-14T10:45:42.679Z,43.09
2022-09-14T10:48:45.476Z,42.02
2022-09-14T10:51:37.381Z,41.69
2022-09-14T10:54:19.709Z,41.52
2022-09-14T10:57:05.656Z,41.77
2022-09-14T10:59:47.824Z,41.39
2022-09-14T11:02:45.486Z,41.69
2022-09-14T11:05:21.639Z,41.66
2022-09-14T11:08:07.629Z,42.78
2022-09-14T11:10:46.778Z,41.95
2022-09-14T11:13:34.755Z,42.35
2022-09-14T11:16:17.717Z,43.16
2022-09-14T11:18:57.987Z,42.46
2022-09-14T11:21:35.752Z,41.01
2022-09-14T11:24:14.360Z,41.26
2022-09-14T11:26:48.326Z,41.33
2022-09-14T11:29:27.437Z,40.76
2022-09-14T11:32:20.406Z,41.70
2022-09-14T11:34:58.170Z,41.55
2022-09-14T11:37:35.445Z,42.10
2022-09-14T11:40:16.735Z,41.97
2022-09-14T11:46:45.037Z,41.69
2022-09-14T12:10:03.237Z,39.11
2022-09-14T12:21:28.461Z,40.62
2022-09-14T12:24:00.203Z,40.84
2022-09-14T12:26:36.258Z,41.60
2022-09-14T12:29:29.198Z,41.52
2022-09-14T12:32:11.828Z,42.35
2022-09-14T12:35:32.407Z,41.98
2022-09-14T12:37:49.419Z,42.48
2022-09-14T12:42:28.161Z,43.06
2022-09-14T12:45:01.954Z,43.87
2022-09-14T12:48:00.867Z,44.31
2022-09-14T12:50:38.069Z,42.69
2022-09-14T12:53:28.739Z,42.91
2022-09-14T12:56:07.026Z,42.32
2022-09-14T12:58:52.753Z,42.10
2022-09-14T13:01:55.870Z,41.93
2022-09-14T13:05:01.469Z,41.91
2022-09-14T13:20:53.383Z,39.68
2022-09-14T13:23:24.808Z,38.53
2022-09-14T13:26:01.062Z,38.48
2022-09-14T13:28:34.691Z,39.24
2022-09-14T13:31:05.675Z,39.79
2022-09-14T13:33:36.711Z,40.08
2022-09-14T13:36:12.815Z,40.58
2022-09-14T13:38:45.645Z,40.75
2022-09-14T13:41:19.243Z,40.36
2022-09-14T13:43:58.066Z,41.29
2022-09-14T13:50:10.857Z,41.61
2022-09-14T13:53:03.069Z,41.23
2022-09-14T13:55:51.412Z,40.76
2022-09-14T13:58:35.717Z,42.08
2022-09-14T14:01:21.847Z,40.92
2022-09-14T14:04:07.833Z,40.71
2022-09-14T14:06:50.610Z,40.26
2022-09-14T14:09:48.892Z,41.36
2022-09-14T14:16:19.007Z,42.54
2022-09-14T14:27:03.713Z,42.66
2022-09-14T14:30:48.867Z,42.45
2022-09-14T14:33:20.307Z,41.80
2022-09-14T14:36:33.604Z,42.12
2022-09-14T14:39:54.669Z,42.27
2022-09-14T14:45:35.356Z,42.67
2022-09-14T14:48:13.035Z,44.00
2022-09-14T14:50:44.439Z,43.88
2022-09-14T14:53:16.613Z,43.92
2022-09-14T14:56:28.278Z,44.33
2022-09-14T15:00:22.821Z,43.49
2022-09-14T15:03:19.174Z,43.36
2022-09-14T15:09:18.469Z,44.07
2022-09-14T15:11:51.249Z,44.47
2022-09-14T15:14:26.194Z,44.62
2022-09-14T15:17:00.220Z,45.29
2022-09-14T15:19:32.964Z,44.66
2022-09-14T15:22:03.115Z,44.32
2022-09-14T15:24:33.167Z,44.29
2022-09-14T15:27:03.158Z,44.09
2022-09-14T15:29:33.328Z,43.86
2022-09-14T15:32:06.136Z,43.64
2022-09-14T15:34:41.118Z,43.12
2022-09-14T15:37:12.199Z,43.26
2022-09-14T15:39:46.108Z,43.23
2022-09-14T15:42:21.348Z,44.14
2022-09-14T15:56:27.562Z,43.75
2022-09-14T15:59:03.997Z,43.86
2022-09-14T16:01:40.850Z,44.26
2022-09-14T16:04:12.078Z,43.30
2022-09-14T16:06:47.531Z,43.21
2022-09-14T16:09:22.353Z,42.80
2022-09-14T16:11:58.416Z,43.28
2022-09-14T16:14:52.762Z,43.15
2022-09-14T16:17:28.432Z,42.62
2022-09-14T16:20:00.285Z,43.29
2022-09-14T16:37:02.525Z,46.11
2022-09-14T16:39:35.280Z,46.76
2022-09-14T16:42:05.982Z,47.22
2022-09-14T16:44:36.336Z,46.99
2022-09-14T16:47:10.244Z,46.70
2022-09-14T16:49:42.170Z,47.56
2022-09-14T16:52:12.085Z,47.65
2022-09-14T16:54:42.518Z,48.17
2022-09-14T16:57:12.393Z,48.54
2022-09-14T16:59:42.204Z,48.72
2022-09-14T17:02:17.502Z,49.19
2022-09-14T17:04:47.349Z,48.66
2022-09-14T17:07:17.491Z,48.28
2022-09-14T17:09:50.410Z,48.73
2022-09-14T17:18:00.148Z,49.14
2022-09-14T17:20:34.658Z,49.53
2022-09-14T17:27:26.981Z,48.40
2022-09-14T17:30:07.971Z,48.20
2022-09-14T17:32:47.883Z,48.04
2022-09-14T17:35:41.359Z,47.47
2022-09-14T17:38:11.965Z,48.66
2022-09-14T17:40:42.140Z,48.79
2022-09-14T17:43:12.524Z,48.57
2022-09-14T17:45:42.996Z,48.95
2022-09-14T17:48:13.366Z,49.09
2022-09-14T17:50:46.078Z,49.06
2022-09-14T17:53:23.111Z,49.53
2022-09-14T17:55:53.229Z,49.99
2022-09-14T17:58:23.476Z,49.50
2022-09-14T18:00:53.631Z,48.92
2022-09-14T18:03:25.097Z,49.26
2022-09-14T18:05:59.554Z,48.73
2022-09-14T18:08:29.824Z,48.64
2022-09-14T18:11:06.067Z,48.64
2022-09-14T18:13:36.343Z,48.30
2022-09-14T18:16:07.344Z,48.75
2022-09-14T18:18:38.653Z,49.10
2022-09-14T18:21:15.025Z,48.50
2022-09-14T18:23:45.352Z,48.80
2022-09-14T18:26:17.818Z,48.92
2022-09-14T18:28:48.427Z,49.09
2022-09-14T18:31:22.705Z,48.39
2022-09-14T18:34:05.191Z,48.03
2022-09-14T18:36:41.706Z,48.59
2022-09-14T18:39:27.756Z,48.54
2022-09-14T18:42:02.002Z,48.91
2022-09-14T18:44:44.582Z,49.36
2022-09-14T18:47:17.790Z,48.89
2022-09-14T18:49:54.577Z,49.33
2022-09-14T18:52:36.591Z,49.35
2022-09-14T18:55:26.888Z,49.64
2022-09-14T18:57:58.978Z,49.09
2022-09-14T19:00:29.778Z,47.87
2022-09-14T19:03:01.359Z,48.62
2022-09-14T19:05:32.091Z,49.10
2022-09-14T19:08:05.512Z,49.26
2022-09-14T19:15:07.905Z,48.43
2022-09-14T19:17:56.405Z,47.65
2022-09-14T19:21:05.838Z,48.61
2022-09-14T19:23:46.040Z,48.50
2022-09-14T19:26:40.026Z,48.86
2022-09-14T19:29:15.415Z,48.86
2022-09-14T19:31:48.848Z,49.04
2022-09-14T19:34:22.554Z,49.46
2022-09-14T19:37:03.429Z,49.10
2022-09-14T19:39:52.380Z,49.47
2022-09-14T19:43:20.514Z,49.66
2022-09-14T19:45:53.193Z,49.07
2022-09-14T19:48:28.767Z,49.46
2022-09-14T19:51:04.444Z,49.98
2022-09-14T19:53:49.317Z,49.58
2022-09-14T19:56:25.558Z,49.72
2022-09-14T19:59:04.070Z,49.92
2022-09-14T20:01:36.282Z,49.79
2022-09-14T20:04:07.745Z,50.01
2022-09-14T20:07:13.985Z,50.51
2022-09-14T20:09:46.737Z,49.96
2022-09-14T20:12:19.507Z,50.39
2022-09-14T20:14:49.492Z,50.73
2022-09-14T20:17:19.942Z,50.46
2022-09-14T20:19:50.448Z,50.76
2022-09-14T20:22:20.677Z,50.94
2022-09-14T20:24:50.676Z,50.96
2022-09-14T20:27:23.728Z,50.59
2022-09-14T20:29:54.148Z,50.72
2022-09-14T20:36:21.806Z,51.47
2022-09-14T20:38:54.488Z,51.66
2022-09-14T20:41:26.528Z,51.27
2022-09-14T20:44:00.078Z,51.67
2022-09-14T20:46:34.998Z,51.53
2022-09-14T20:49:08.548Z,51.19
2022-09-14T20:51:39.229Z,51.16
2022-09-14T20:54:11.621Z,51.14
2022-09-14T20:56:42.959Z,51.64
2022-09-14T20:59:25.297Z,51.26
2022-09-14T21:35:16.898Z,54.59
2022-09-14T21:37:50.474Z,54.70
2022-09-14T21:40:25.948Z,55.98
2022-09-14T21:42:58.456Z,56.14
2022-09-14T21:45:30.867Z,56.90
2022-09-14T21:48:01.088Z,57.93
2022-09-14T21:50:33.548Z,58.02
2022-09-14T21:53:05.525Z,58.11
2022-09-14T21:55:35.545Z,59.01
2022-09-14T21:58:05.853Z,59.44
2022-09-14T22:00:36.302Z,59.98
2022-09-14T22:03:06.618Z,60.37
2022-09-14T22:05:41.309Z,60.64
2022-09-14T22:08:11.547Z,60.45
2022-09-14T22:10:46.223Z,59.74
2022-09-14T22:13:17.526Z,60.10
2022-09-14T22:15:47.857Z,59.79
2022-09-14T22:18:18.229Z,59.98
2022-09-14T22:20:58.505Z,59.86
2022-09-14T22:23:29.188Z,60.34
2022-09-14T22:25:58.899Z,60.72
2022-09-14T22:28:29.300Z,61.54
2022-09-14T22:30:59.344Z,62.08
2022-09-14T22:33:29.199Z,62.50
2022-09-14T22:36:03.782Z,62.55
2022-09-14T22:38:35.091Z,62.43
2022-09-14T22:41:08.260Z,62.25
2022-09-14T22:43:38.294Z,62.54
2022-09-14T22:46:10.183Z,62.83
2022-09-14T22:48:40.759Z,63.14
2022-09-14T22:51:15.927Z,63.07
2022-09-14T22:53:46.608Z,63.85
2022-09-14T22:56:19.284Z,64.11
2022-09-14T22:58:50.308Z,63.82
2022-09-14T23:01:23.989Z,63.77
2022-09-14T23:04:03.045Z,63.91
2022-09-14T23:06:39.927Z,64.44
2022-09-14T23:09:16.817Z,64.27
2022-09-14T23:11:55.327Z,64.64
2022-09-14T23:14:36.111Z,64.90
2022-09-14T23:17:08.938Z,64.70
2022-09-14T23:19:41.030Z,64.73
2022-09-14T23:22:17.882Z,64.65
2022-09-14T23:24:51.711Z,63.99
2022-09-14T23:27:28.845Z,64.04
2022-09-14T23:30:01.758Z,64.59
2022-09-14T23:32:34.267Z,64.11
2022-09-14T23:35:06.272Z,64.55
2022-09-14T23:37:41.185Z,65.87
2022-09-14T23:40:13.668Z,65.89
2022-09-14T23:42:45.738Z,66.92
2022-09-14T23:45:18.429Z,66.85
2022-09-14T23:47:51.339Z,66.66
2022-09-14T23:50:23.827Z,66.58
2022-09-14T23:52:59.867Z,66.50
2022-09-14T23:55:31.816Z,65.62
2022-09-14T23:58:03.305Z,64.72
